Flight Track Log - Related Links

Times and Time Zones

All times are in EDT time to prevent confusion due to time zone crossing. See the LYM752 flight status page for this flight to view local times or setup timezone preferences in your user account.

Time Position Orientation Groundspeed Altitude Reporting Facility
EDT Latitude Longitude Course Direction KTS MPH feet Rate Location/Type
Tue 09:14:08 PM 43.0936 -108.4303 51° Northeast 181 208 12,600  Level Denver Center
Tue 09:15:00 PM 42.7865 -108.1099 127° Southeast  Level Estimated
Tue 09:15:09 PM 43.0483 -108.3967 152° Southeast 194 223 14,400  Level Denver Center
Tue 09:16:00 PM 42.7401 -108.0519 120° Southeast  Level Estimated
Tue 09:16:11 PM 43.0056 -108.3550 145° Southeast 197 227 16,700  Level Denver Center
Tue 09:17:00 PM 42.6937 -107.9940 124° Southeast  Level Estimated
Tue 09:17:15 PM 42.9772 -108.2775 117° Southeast 211 243 18,200  Level Salt Center
Tue 09:18:00 PM 42.6472 -107.9361 124° Southeast  Level Estimated
Tue 09:18:16 PM 42.9447 -108.2028 121° Southeast 225 259 19,700  Level Salt Center
Tue 09:19:17 PM 42.9050 -108.1158 122° Southeast 236 272 21,100 639 Climbing Salt Center
Tue 09:20:18 PM 42.8653 -108.0350 124° Southeast 258 297 21,000 -98 Descending Salt Center
Tue 09:21:19 PM 42.8178 -107.9475 126° Southeast 293 337 20,900 -49 Descending Salt Center
Tue 09:22:21 PM 42.7614 -107.8422 126° Southeast 306 352 20,900 49 Level Salt Center
Tue 09:23:22 PM 42.7158 -107.7481 123° Southeast 310 357 21,000 49 Climbing Salt Center
Tue 09:24:23 PM 42.6617 -107.6433 125° Southeast 305 351 21,000  Level Salt Center
Tue 09:25:24 PM 42.6161 -107.5528 124° Southeast 304 350 21,000  Level Salt Center
Tue 09:26:26 PM 42.5706 -107.4619 124° Southeast 304 350 21,000 49 Level Salt Center
Tue 09:27:27 PM 42.5203 -107.3600 124° Southeast 293 337 21,100  Climbing Salt Center
Tue 09:28:30 PM 42.4778 -107.2714 123° Southeast 293 337 21,000 -48 Descending Denver Center
Tue 09:29:32 PM 42.4303 -107.1639 121° Southeast 296 341 21,000  Level Denver Center
Tue 09:30:33 PM 42.3889 -107.0783 123° Southeast 288 331 21,000 49 Level Denver Center
Tue 09:31:35 PM 42.3394 -106.9753 123° Southeast 291 335 21,100  Climbing Denver Center
Tue 09:32:37 PM 42.2956 -106.8867 124° Southeast 295 339 21,000  Descending Denver Center
Tue 09:33:38 PM 42.2514 -106.7992 124° Southeast 296 341 21,100  Climbing Denver Center
Tue 09:34:40 PM 42.1983 -106.6986 125° Southeast 295 339 21,000 -48 Descending Denver Center
Tue 09:35:42 PM 42.1542 -106.6128 125° Southeast 293 337 21,000 -49 Level Denver Center
Tue 09:36:43 PM 42.1078 -106.5231 125° Southeast 289 333 20,900  Descending Denver Center
Tue 09:37:45 PM 42.0572 -106.4244 125° Southeast 287 330 21,000 97 Climbing Denver Center
Tue 09:38:47 PM 42.0122 -106.3419 126° Southeast 286 329 21,100  Climbing Denver Center
Tue 09:39:48 PM 41.9644 -106.2372 122° Southeast 292 336 21,000 -49 Descending Denver Center
Tue 09:40:50 PM 41.9194 -106.1531 126° Southeast 289 333 21,000 48 Level Denver Center
Tue 09:41:52 PM 41.8667 -106.0539 126° Southeast 292 336 21,100  Climbing Denver Center
Tue 09:42:54 PM 41.8208 -105.9794 130° Southeast 278 320 21,000 -49 Descending Denver Center
Tue 09:43:55 PM 41.7617 -105.9394 153° Southeast 255 293 21,000  Level Denver Center
Tue 09:44:57 PM 41.6928 -105.9017 158° South 242 278 21,000  Level Denver Center
Tue 09:45:59 PM 41.6325 -105.8689 158° South 243 280 21,000  Level Denver Center
Tue 09:47:00 PM 41.5608 -105.8275 157° South 249 287 21,000  Level Denver Center
Tue 09:48:02 PM 41.5003 -105.8011 162° South 243 280 21,000  Level Denver Center
Tue 09:49:04 PM 41.4289 -105.7806 168° South 236 272 21,000 49 Level Denver Center
Tue 09:50:05 PM 41.3669 -105.7472 158° South 244 281 21,100 49 Climbing Denver Center
Tue 09:51:07 PM 41.3075 -105.6656 134° Southeast 291 335 21,100 -48 Level Denver Center
Tue 09:52:09 PM 41.2556 -105.5942 134° Southeast 283 326 21,000 -390 Descending Denver Center
Tue 09:53:10 PM 41.2075 -105.5189 130° Southeast 280 322 20,300 -1,024 Descending Denver Center
Tue 09:54:12 PM 41.1419 -105.4267 133° Southeast 305 351 18,900 -1,161 Descending Denver Center
Tue 09:55:14 PM 41.0917 -105.3444 129° Southeast 304 350 17,900 -1,122 Descending Denver Center
Tue 09:56:15 PM 41.0369 -105.2433 126° Southeast 305 351 16,600 -1,463 Descending Denver Center
Tue 09:57:17 PM 40.9825 -105.1717 135° Southeast 300 345 14,900 -1,659 Descending Denver Center
Tue 09:58:18 PM 40.9253 -105.1056 139° Southeast 286 329 13,200 -878 Descending Denver Center
Tue 09:59:20 PM 40.8678 -105.0228 133° Southeast 261 300 13,100 -49 Descending Denver Center
Tue 10:00:21 PM 40.8286 -104.9847 144° Southeast 262 302 13,100  Level Denver Center
Tue 10:01:23 PM 40.7508 -104.9114 144° Southeast 260 299 13,100 -48 Level Denver Center
Tue 10:02:25 PM 40.6861 -104.8817 161° South 254 292 13,000  Descending Denver Center
Tue 10:03:26 PM 40.6131 -104.8500 162° South 255 293 13,100 -341 Climbing Denver Center
Tue 10:04:28 PM 40.5431 -104.8317 169° South 258 297 12,300 -968 Descending Denver Center
Tue 10:05:30 PM 40.4614 -104.8222 175° South 272 313 11,100 -585 Descending Denver Center
Tue 10:06:31 PM 40.3867 -104.8156 176° South 270 311 11,100  Level Denver Center
Tue 10:07:33 PM 40.3164 -104.8108 177° South 256 295 11,100 -49 Level Denver Center
Tue 10:08:34 PM 40.2419 -104.8064 177° South 250 288 11,000  Descending Denver Center
Tue 10:09:36 PM 40.1703 -104.8053 179° South 255 293 11,100  Climbing Denver Center
Tue 10:10:37 PM 40.0986 -104.8022 178° South 257 296 11,000 33 Descending Denver Center
Tue 10:12:40 PM 39.9525 -104.8108 183° South 253 291 11,200 32 Climbing Denver Center
Tue 10:13:42 PM 39.8828 -104.8147 182° South 253 291 11,100 -49 Descending Denver Center
Tue 10:14:43 PM 39.8075 -104.8128 179° South 253 291 11,100 -390 Level Denver Center
Tue 10:15:45 PM 39.7358 -104.8117 179° South 258 297 10,300 -756 Descending Denver Center
Tue 10:17:00 PM 39.7911 -104.7509 40° Northeast  Level Estimated
Tue 10:18:49 PM 39.6664 -104.6886 40° Northeast 185 213 8,000  Level Denver Center
Tue 10:19:51 PM 39.7119 -104.6681 19° North 170 196 7,900 -537 Descending Denver Center
Tue 10:20:52 PM 39.7600 -104.6631 North 160 184 6,900 -885 Descending Denver Center
Tue 10:21:53 PM 39.8006 -104.6619 North 148 170 6,100 -683 Descending Denver Center
Tue 10:22:55 PM 39.8397 -104.6617 360° North 145 167 5,500 -581 Descending Denver Center
Tue 10:24:00 PM 39.8617 -104.6732 40° Northeast  Level Estimated

Login

Don't have an account? Register now (free) for customized features, flight alerts, and more!